createdAt,value
2023-02-11T00:04:46.735Z,4.0
2023-02-11T00:07:10.878Z,4.7
2023-02-11T00:12:11.492Z,5.4
2023-02-11T00:17:11.989Z,4.5
2023-02-11T00:22:12.584Z,4.7
2023-02-11T00:27:13.165Z,5.3
2023-02-11T00:32:13.832Z,6.4
2023-02-11T00:37:14.346Z,5.4
2023-02-11T00:42:14.823Z,4.5
2023-02-11T00:47:15.441Z,4.6
2023-02-11T00:52:15.929Z,4.3
2023-02-11T00:57:16.540Z,4.2
2023-02-11T01:02:17.010Z,4.9
2023-02-11T01:07:17.687Z,4.4
2023-02-11T01:12:18.095Z,5.6
2023-02-11T01:17:18.712Z,5.9
2023-02-11T01:22:19.650Z,6.0
2023-02-11T01:27:19.788Z,6.1
2023-02-11T01:32:20.515Z,8.5
2023-02-11T01:37:21.016Z,6.3
2023-02-11T01:42:21.685Z,8.1
2023-02-11T01:47:22.055Z,8.5
2023-02-11T01:52:22.722Z,8.7
2023-02-11T01:57:23.178Z,8.3
2023-02-11T02:02:23.790Z,7.8
2023-02-11T02:07:24.488Z,7.6
2023-02-11T02:12:24.814Z,6.8
2023-02-11T02:17:25.506Z,7.7
2023-02-11T02:22:26.587Z,8.0
2023-02-11T02:27:26.585Z,7.4
2023-02-11T02:32:27.069Z,6.3
2023-02-11T02:37:27.789Z,5.4
2023-02-11T02:42:28.203Z,7.0
2023-02-11T02:47:28.718Z,5.9
2023-02-11T02:52:29.360Z,7.2
2023-02-11T02:57:29.816Z,6.3
2023-02-11T03:02:30.478Z,7.3
2023-02-11T03:07:31.088Z,7.0
2023-02-11T03:12:31.656Z,7.4
2023-02-11T03:17:32.105Z,6.7
2023-02-11T03:22:33.172Z,6.8
2023-02-11T03:27:33.308Z,6.8
2023-02-11T03:32:33.834Z,5.8
2023-02-11T03:37:34.541Z,5.5
2023-02-11T03:42:34.956Z,6.3
2023-02-11T03:47:35.573Z,5.6
2023-02-11T03:52:36.083Z,6.4
2023-02-11T03:57:36.698Z,6.3
2023-02-11T04:02:37.405Z,5.6
2023-02-11T04:07:37.846Z,5.3
2023-02-11T04:12:38.384Z,4.8
2023-02-11T04:17:38.882Z,5.0
2023-02-11T04:22:39.859Z,4.4
2023-02-11T04:27:40.013Z,3.9
2023-02-11T04:32:40.624Z,4.3
2023-02-11T04:37:41.116Z,4.9
2023-02-11T04:42:41.732Z,4.5
2023-02-11T04:47:42.137Z,4.6
2023-02-11T04:52:42.812Z,4.2
2023-02-11T04:57:43.332Z,4.6
2023-02-11T05:02:43.863Z,4.5
2023-02-11T05:07:44.531Z,4.5
2023-02-11T05:12:44.971Z,4.7
2023-02-11T05:17:45.596Z,4.7
2023-02-11T05:22:46.444Z,4.2
2023-02-11T05:27:46.692Z,3.9
2023-02-11T05:32:47.408Z,4.2
2023-02-11T05:37:47.922Z,3.9
2023-02-11T05:42:48.476Z,4.1
2023-02-11T05:47:49.083Z,3.8
2023-02-11T05:52:49.576Z,3.2
2023-02-11T05:57:50.005Z,3.4
2023-02-11T06:02:50.651Z,2.2
2023-02-11T06:07:51.210Z,2.7
2023-02-11T06:12:51.716Z,3.0
2023-02-11T06:17:52.203Z,2.6
2023-02-11T06:22:53.165Z,2.7
2023-02-11T06:27:53.416Z,2.7
2023-02-11T06:32:54.045Z,2.5
2023-02-11T06:37:54.664Z,3.0
2023-02-11T06:42:55.145Z,2.9
2023-02-11T06:47:55.774Z,2.6
2023-02-11T06:52:56.440Z,2.7
2023-02-11T06:57:56.918Z,2.8
2023-02-11T07:02:57.546Z,2.4
2023-02-11T07:07:58.079Z,2.0
2023-02-11T07:12:58.917Z,2.1
2023-02-11T07:17:59.113Z,2.3
2023-02-11T07:22:59.954Z,1.7
2023-02-11T07:28:00.422Z,1.5
2023-02-11T07:33:00.741Z,1.7
2023-02-11T07:38:01.495Z,1.9
2023-02-11T07:43:01.983Z,1.6
2023-02-11T07:48:02.547Z,1.8
2023-02-11T07:53:03.096Z,1.6
2023-02-11T07:58:03.675Z,1.6
2023-02-11T08:03:04.112Z,1.9
2023-02-11T08:08:04.760Z,2.0
2023-02-11T08:13:05.123Z,1.7
2023-02-11T08:18:05.700Z,1.5
2023-02-11T08:23:06.370Z,1.2
2023-02-11T08:28:06.735Z,1.1
2023-02-11T08:33:07.472Z,1.0
2023-02-11T08:38:07.778Z,1.1
2023-02-11T08:43:08.268Z,0.7
2023-02-11T08:48:08.752Z,1.4
2023-02-11T08:53:09.417Z,0.7
2023-02-11T08:58:09.806Z,1.1
2023-02-11T09:03:10.389Z,1.0
2023-02-11T09:08:10.919Z,1.1
2023-02-11T09:13:11.449Z,0.7
2023-02-11T09:18:11.919Z,0.5
2023-02-11T09:23:12.584Z,0.5
2023-02-11T09:28:12.955Z,0.8
2023-02-11T09:33:13.500Z,0.4
2023-02-11T09:38:14.055Z,0.6
2023-02-11T09:43:14.552Z,1.0
2023-02-11T09:48:15.052Z,1.5
2023-02-11T09:53:15.600Z,1.9
2023-02-11T09:58:16.050Z,2.1
2023-02-11T10:03:16.616Z,1.9
2023-02-11T10:08:17.225Z,2.1
2023-02-11T10:13:17.658Z,1.7
2023-02-11T10:18:18.166Z,1.6
2023-02-11T10:23:19.028Z,2.0
2023-02-11T10:28:19.186Z,1.7
2023-02-11T10:33:19.776Z,2.0
2023-02-11T10:38:20.424Z,1.6
2023-02-11T10:43:20.802Z,1.7
2023-02-11T10:48:21.416Z,1.6
2023-02-11T10:53:21.920Z,1.1
2023-02-11T10:58:22.473Z,1.3
2023-02-11T11:03:22.890Z,1.8
2023-02-11T11:08:23.587Z,1.2
2023-02-11T11:13:23.995Z,1.7
2023-02-11T11:18:24.623Z,1.9
2023-02-11T11:23:25.160Z,2.7
2023-02-11T11:28:25.796Z,1.9
2023-02-11T11:33:26.127Z,1.9
2023-02-11T11:38:26.796Z,2.0
2023-02-11T11:43:27.235Z,1.0
2023-02-11T11:48:27.768Z,1.6
2023-02-11T11:53:28.478Z,1.3
2023-02-11T11:58:28.904Z,1.5
2023-02-11T12:03:29.660Z,0.9
2023-02-11T12:08:30.059Z,0.9
2023-02-11T12:13:30.797Z,1.5
2023-02-11T12:18:31.149Z,1.4
2023-02-11T12:23:32.014Z,1.8
2023-02-11T12:28:32.254Z,1.5
2023-02-11T12:33:32.718Z,1.5
2023-02-11T12:38:33.218Z,1.1
2023-02-11T12:43:33.793Z,1.3
2023-02-11T12:48:35.917Z,1.4
2023-02-11T12:53:34.806Z,1.6
2023-02-11T12:58:44.520Z,2.1
2023-02-11T13:03:35.752Z,1.4
2023-02-11T13:08:36.454Z,1.7
2023-02-11T13:13:36.785Z,1.2
2023-02-11T13:18:37.561Z,1.2
2023-02-11T13:23:38.159Z,1.4
2023-02-11T13:28:38.574Z,1.3
2023-02-11T13:33:38.941Z,1.3
2023-02-11T13:38:39.617Z,1.5
2023-02-11T13:43:39.916Z,1.9
2023-02-11T13:48:40.508Z,2.1
2023-02-11T13:53:41.018Z,1.9
2023-02-11T13:58:41.501Z,1.6
2023-02-11T14:03:41.913Z,1.7
2023-02-11T14:08:42.566Z,1.7
2023-02-11T14:13:42.973Z,1.9
2023-02-11T14:18:43.530Z,1.6
2023-02-11T14:23:44.299Z,1.9
2023-02-11T14:28:44.506Z,2.3
2023-02-11T14:33:45.051Z,1.5
2023-02-11T14:38:45.714Z,1.7
2023-02-11T14:43:46.051Z,2.0
2023-02-11T14:48:46.721Z,1.7
2023-02-11T14:53:47.200Z,1.3
2023-02-11T14:58:47.861Z,1.5
2023-02-11T15:03:48.154Z,1.4
2023-02-11T15:08:48.778Z,2.0
2023-02-11T15:13:49.376Z,1.8
2023-02-11T15:18:49.845Z,1.4
2023-02-11T15:23:50.553Z,1.4
2023-02-11T15:28:51.209Z,1.7
2023-02-11T15:33:51.580Z,2.0
2023-02-11T15:38:52.130Z,1.8
2023-02-11T15:43:52.616Z,1.6
2023-02-11T15:48:53.096Z,1.8
2023-02-11T15:53:53.803Z,1.7
2023-02-11T15:58:54.163Z,1.9
2023-02-11T16:03:54.750Z,2.5
2023-02-11T16:08:55.456Z,1.9
2023-02-11T16:13:55.853Z,2.1
2023-02-11T16:19:04.914Z,2.2
2023-02-11T16:23:57.291Z,1.8
2023-02-11T16:28:57.518Z,1.9
2023-02-11T16:33:58.024Z,1.8
2023-02-11T16:38:58.663Z,2.2
2023-02-11T16:43:59.125Z,2.1
2023-02-11T16:48:59.746Z,2.0
2023-02-11T16:54:00.535Z,1.8
2023-02-11T16:59:00.859Z,2.2
2023-02-11T17:04:01.460Z,2.1
2023-02-11T17:09:01.944Z,1.7
2023-02-11T17:14:02.458Z,2.2
2023-02-11T17:19:02.942Z,2.6
2023-02-11T17:24:03.697Z,2.3
2023-02-11T17:29:04.033Z,1.9
2023-02-11T17:34:04.714Z,2.0
2023-02-11T17:39:08.018Z,1.8
2023-02-11T17:44:05.711Z,2.4
2023-02-11T17:49:06.369Z,2.2
2023-02-11T17:54:06.885Z,2.9
2023-02-11T17:59:07.469Z,2.3
2023-02-11T18:04:07.958Z,2.3
2023-02-11T18:09:08.637Z,2.4
2023-02-11T18:14:09.029Z,2.8
2023-02-11T18:19:09.648Z,2.5
2023-02-11T18:24:10.463Z,2.4
2023-02-11T18:29:10.658Z,2.6
2023-02-11T18:34:11.329Z,2.7
2023-02-11T18:39:11.855Z,2.1
2023-02-11T18:44:12.413Z,2.7
2023-02-11T18:49:12.915Z,2.4
2023-02-11T18:54:13.644Z,2.6
2023-02-11T18:59:14.059Z,2.4
2023-02-11T19:04:14.669Z,3.1
2023-02-11T19:09:15.194Z,2.9
2023-02-11T19:14:15.712Z,3.6
2023-02-11T19:19:16.374Z,2.7
2023-02-11T19:24:17.352Z,3.0
2023-02-11T19:29:17.456Z,2.7
2023-02-11T19:34:17.838Z,2.6
2023-02-11T19:39:18.634Z,2.5
2023-02-11T19:44:18.990Z,2.3
2023-02-11T19:49:19.613Z,3.5
2023-02-11T19:54:20.216Z,2.5
2023-02-11T19:59:20.709Z,2.9
2023-02-11T20:04:21.171Z,2.8
2023-02-11T20:09:21.784Z,2.9
2023-02-11T20:14:22.328Z,4.3
2023-02-11T20:19:22.801Z,3.1
2023-02-11T20:24:23.587Z,3.1
2023-02-11T20:29:23.854Z,2.9
2023-02-11T20:34:24.500Z,3.0
2023-02-11T20:39:25.410Z,3.0
2023-02-11T20:44:25.553Z,2.7
2023-02-11T20:49:26.093Z,2.6
2023-02-11T20:54:27.106Z,3.1
2023-02-11T20:59:27.173Z,2.7
2023-02-11T21:04:27.727Z,2.9
2023-02-11T21:09:28.449Z,2.3
2023-02-11T21:14:28.869Z,2.7
2023-02-11T21:19:29.477Z,2.3
2023-02-11T21:24:30.146Z,2.6
2023-02-11T21:29:30.591Z,2.2
2023-02-11T21:34:31.032Z,2.4
2023-02-11T21:39:31.789Z,1.9
2023-02-11T21:44:32.197Z,2.4
2023-02-11T21:49:32.628Z,2.0
2023-02-11T21:54:33.226Z,2.0
2023-02-11T21:59:33.766Z,2.5
2023-02-11T22:04:34.242Z,1.7
2023-02-11T22:09:34.799Z,2.3
2023-02-11T22:14:41.368Z,1.5
2023-02-11T22:19:35.788Z,1.5
2023-02-11T22:24:36.915Z,1.4
2023-02-11T22:29:36.805Z,1.6
2023-02-11T22:34:37.333Z,1.7
2023-02-11T22:39:37.929Z,1.9
2023-02-11T22:44:38.397Z,1.6
2023-02-11T22:49:38.923Z,2.0
2023-02-11T22:54:39.497Z,2.0
2023-02-11T22:59:39.995Z,3.1
2023-02-11T23:04:40.610Z,2.1
2023-02-11T23:09:41.178Z,2.3
2023-02-11T23:14:41.758Z,2.3
2023-02-11T23:19:42.326Z,1.9
2023-02-11T23:24:42.901Z,1.9
2023-02-11T23:29:43.485Z,2.0
2023-02-11T23:34:43.863Z,3.0
2023-02-11T23:39:44.547Z,1.9
2023-02-11T23:44:44.935Z,1.8
2023-02-11T23:49:45.556Z,2.0
2023-02-11T23:54:46.124Z,1.2
2023-02-11T23:59:46.602Z,1.5
